Chiricana — 3EKU3 — position and weather

sailwx.info

Track history (hours):
 
Tides and Currents Weather Stations Pressure Air Temp Water Temp Dewpoint Dewpoint Depression Visibility Wind Speed Wind Dir Waves Ship Positions

Chiricana

Last reported at 2016-Jul-21 12:08 UTC. Time now 2016-Jul-29 19:46 UTC.
Position N 27°09' E 122°43'.
Warning: this ship's position is 8 days out of date.

Length 300 m; draft 12.5 m.

Type: Ship (hazmat cat A). MMSI: 372829000.

Date/timePositionNaut miles runAvg speedWind from/ knotsBaromVisibWave heightAir tempDewpointWater temp
2016-Jul-21 12:08N 27°09' E 122°43'5119.3
2016-Jul-21 09:30N 26°29' E 122°08'123 6.8
2016-Jul-20 15:21N 24°56' E 120°38'3316.6
2016-Jul-20 13:24N 24°28' E 120°18'2116.5
2016-Jul-20 12:06N 24°09' E 120°08'1018.2
2016-Jul-20 11:33N 24°01' E 120°02'2019.8
2016-Jul-20 10:33N 23°42' E 119°55'6220.8
2016-Jul-20 07:33N 22°40' E 119°57'1616.6
2016-Jul-20 06:34N 22°33' E 120°14'6 1.7
2016-Jul-20 03:14N 22°33' E 120°20'4 0.2
2016-Jul-19 04:33N 22°32' E 120°16'6 5.8
2016-Jul-19 03:33N 22°31' E 120°09'1 0.6
2016-Jul-19 02:33N 22°30' E 120°10'1 0.6
2016-Jul-19 01:33N 22°30' E 120°10'0 0.3
2016-Jul-19 00:33N 22°29' E 120°10'0 0.4
2016-Jul-18 23:33N 22°29' E 120°09'0 0.3
2016-Jul-18 22:33N 22°29' E 120°09'0 0.1
2016-Jul-18 21:33N 22°29' E 120°09'0 0.0
2016-Jul-18 20:33N 22°29' E 120°09'0 0.1
2016-Jul-18 19:33N 22°29' E 120°09'0 0.3
2016-Jul-18 18:33N 22°29' E 120°09'0 0.4
2016-Jul-18 17:33N 22°29' E 120°08'0 0.2
2016-Jul-18 16:33N 22°30' E 120°08'6 6.4
2016-Jul-18 15:33N 22°31' E 120°01'1211.6
2016-Jul-18 14:32N 22°29' E 119°49'31714.4
2016-Jul-17 16:33N 22°19' E 114°05'2 0.6
2016-Jul-17 12:33N 22°20' E 114°08'0 0.0
2016-Jul-17 11:15N 22°20' E 114°08'0 0.0
2016-Jul-17 07:21N 22°20' E 114°08'0 0.0
2016-Jul-17 06:33N 22°20' E 114°08'0 0.0
2016-Jul-17 02:21N 22°20' E 114°08'0 0.0
2016-Jul-17 01:33N 22°20' E 114°08'0 0.1
2016-Jul-16 22:33N 22°20' E 114°08'16 2.0
2016-Jul-16 14:29N 22°34' E 114°16'  
Track history (hours):
 
Tides and Currents Weather Stations Pressure Air Temp Water Temp Dewpoint Dewpoint Depression Visibility Wind Speed Wind Dir Waves Ship Positions

Chiricana

Last reported at 2016-Jul-21 12:08 UTC. Time now 2016-Jul-29 19:46 UTC.
Position N 27°09' E 122°43'.
Warning: this ship's position is 8 days out of date.

Length 300 m; draft 12.5 m.

Type: Ship (hazmat cat A). MMSI: 372829000.

Date/timePositionNaut miles runAvg speedWind from/ knotsBaromVisibWave heightAir tempDewpointWater temp
2016-Jul-21 12:08N 27°09' E 122°43'5119.3
2016-Jul-21 09:30N 26°29' E 122°08'123 6.8
2016-Jul-20 15:21N 24°56' E 120°38'3316.6
2016-Jul-20 13:24N 24°28' E 120°18'2116.5
2016-Jul-20 12:06N 24°09' E 120°08'1018.2
2016-Jul-20 11:33N 24°01' E 120°02'2019.8
2016-Jul-20 10:33N 23°42' E 119°55'6220.8
2016-Jul-20 07:33N 22°40' E 119°57'1616.6
2016-Jul-20 06:34N 22°33' E 120°14'6 1.7
2016-Jul-20 03:14N 22°33' E 120°20'4 0.2
2016-Jul-19 04:33N 22°32' E 120°16'6 5.8
2016-Jul-19 03:33N 22°31' E 120°09'1 0.6
2016-Jul-19 02:33N 22°30' E 120°10'1 0.6
2016-Jul-19 01:33N 22°30' E 120°10'0 0.3
2016-Jul-19 00:33N 22°29' E 120°10'0 0.4
2016-Jul-18 23:33N 22°29' E 120°09'0 0.3
2016-Jul-18 22:33N 22°29' E 120°09'0 0.1
2016-Jul-18 21:33N 22°29' E 120°09'0 0.0
2016-Jul-18 20:33N 22°29' E 120°09'0 0.1
2016-Jul-18 19:33N 22°29' E 120°09'0 0.3
2016-Jul-18 18:33N 22°29' E 120°09'0 0.4
2016-Jul-18 17:33N 22°29' E 120°08'0 0.2
2016-Jul-18 16:33N 22°30' E 120°08'6 6.4
2016-Jul-18 15:33N 22°31' E 120°01'1211.6
2016-Jul-18 14:32N 22°29' E 119°49'31714.4
2016-Jul-17 16:33N 22°19' E 114°05'2 0.6
2016-Jul-17 12:33N 22°20' E 114°08'0 0.0
2016-Jul-17 11:15N 22°20' E 114°08'0 0.0
2016-Jul-17 07:21N 22°20' E 114°08'0 0.0
2016-Jul-17 06:33N 22°20' E 114°08'0 0.0
2016-Jul-17 02:21N 22°20' E 114°08'0 0.0
2016-Jul-17 01:33N 22°20' E 114°08'0 0.1
2016-Jul-16 22:33N 22°20' E 114°08'16 2.0
2016-Jul-16 14:29N 22°34' E 114°16'  

Dump ship's entire track history